Time;durP1;ratioP1;P1;durP2;ratioP2;P2;SDS_P1;SDS_P2;PMS_P1;PMS_P2;Temp;Humidity;BMP_temperature;BMP_pressure;BME280_temperature;BME280_humidity;BME280_pressure;Samples;Min_cycle;Max_cycle;Signal;HPM_P1;HPM_P2
2022/08/06 00:02:13;;;;;;;5.07;2.30;;;21.30;99.90;;;;;;6145689;23;20378;-74
2022/08/06 00:04:38;;;;;;;2.45;2.25;;;21.30;99.90;;;;;;6146231;23;20089;-74
2022/08/06 00:07:04;;;;;;;3.00;2.30;;;21.20;99.90;;;;;;6146283;23;20009;-74
2022/08/06 00:09:33;;;;;;;3.22;2.58;;;21.10;99.90;;;;;;6146217;23;20005;-74
2022/08/06 00:12:00;;;;;;;7.03;2.28;;;21.00;99.90;;;;;;6145353;23;20008;-73
2022/08/06 00:14:29;;;;;;;2.35;2.15;;;20.90;99.90;;;;;;6143341;23;20049;-73
2022/08/06 00:16:55;;;;;;;2.30;2.17;;;20.90;99.90;;;;;;6144330;23;20100;-73
2022/08/06 00:19:21;;;;;;;2.60;2.40;;;20.90;99.90;;;;;;6146291;23;20430;-74
2022/08/06 00:21:46;;;;;;;2.78;2.60;;;20.90;99.90;;;;;;6145284;23;20073;-74
2022/08/06 00:24:12;;;;;;;3.85;2.65;;;20.90;99.90;;;;;;6120397;23;20052;-76
2022/08/06 00:26:38;;;;;;;2.78;2.58;;;20.80;99.90;;;;;;6136784;23;20029;-75
2022/08/06 00:29:05;;;;;;;3.00;2.60;;;20.60;99.90;;;;;;6142758;23;20009;-74
2022/08/06 00:31:31;;;;;;;3.05;2.55;;;20.50;99.90;;;;;;6118240;23;20002;-74
2022/08/06 00:34:00;;;;;;;3.50;2.80;;;20.40;99.90;;;;;;6119736;23;20025;-74
2022/08/06 00:36:26;;;;;;;3.13;2.92;;;20.40;99.90;;;;;;6143905;23;20002;-75
2022/08/06 00:38:52;;;;;;;5.35;3.17;;;20.40;99.90;;;;;;6145856;23;20753;-75
2022/08/06 00:41:18;;;;;;;3.10;2.80;;;20.40;99.90;;;;;;6143596;23;20002;-73
2022/08/06 00:43:45;;;;;;;3.30;3.10;;;20.50;99.90;;;;;;6144551;23;20006;-73
2022/08/06 00:46:10;;;;;;;4.55;3.88;;;20.50;99.90;;;;;;6142911;23;20013;-72
2022/08/06 00:48:36;;;;;;;10.38;3.10;;;20.50;99.90;;;;;;6144832;23;20092;-73
2022/08/06 00:51:02;;;;;;;5.40;3.08;;;20.50;99.90;;;;;;6145355;23;20005;-73
2022/08/06 00:53:28;;;;;;;3.38;2.85;;;20.50;99.90;;;;;;6138554;23;20009;-72
2022/08/06 00:55:54;;;;;;;3.60;3.30;;;20.50;99.90;;;;;;6141362;23;20343;-72
2022/08/06 00:58:20;;;;;;;3.13;2.80;;;20.60;99.90;;;;;;6142078;23;20013;-72
2022/08/06 01:00:45;;;;;;;5.10;3.20;;;20.60;99.90;;;;;;6144608;23;20072;-72
2022/08/06 01:03:11;;;;;;;2.88;2.67;;;20.60;99.90;;;;;;6115633;23;20271;-72
2022/08/06 01:05:37;;;;;;;3.65;3.10;;;20.50;99.90;;;;;;6143096;23;20009;-72
2022/08/06 01:08:03;;;;;;;5.82;3.35;;;20.50;99.90;;;;;;6143457;23;20096;-72
2022/08/06 01:10:29;;;;;;;3.90;3.13;;;20.50;99.90;;;;;;6143671;23;20029;-72
2022/08/06 01:12:55;;;;;;;3.80;3.42;;;20.50;99.90;;;;;;6142846;23;20411;-72
2022/08/06 01:15:20;;;;;;;3.78;2.90;;;20.50;99.90;;;;;;6141610;23;20076;-72
2022/08/06 01:18:07;;;;;;;3.50;3.10;;;20.50;99.90;;;;;;6117976;23;20391;-73
2022/08/06 01:20:46;;;;;;;3.38;3.08;;;20.50;99.90;;;;;;6144406;23;20356;-72
2022/08/06 01:23:40;;;;;;;2.72;2.53;;;20.50;99.90;;;;;;6141323;23;20340;-73
2022/08/06 01:26:22;;;;;;;3.88;3.35;;;20.50;99.90;;;;;;6143510;23;20024;-72
2022/08/06 01:29:00;;;;;;;2.70;2.50;;;20.30;99.90;;;;;;6142344;23;20002;-73
2022/08/06 01:31:36;;;;;;;3.15;2.85;;;20.20;99.90;;;;;;6144964;23;20029;-72
2022/08/06 01:34:10;;;;;;;4.95;2.95;;;20.10;99.90;;;;;;6141349;23;20009;-72
2022/08/06 01:36:43;;;;;;;3.58;2.90;;;20.20;99.90;;;;;;6145349;23;20061;-72
2022/08/06 01:39:12;;;;;;;3.95;3.13;;;20.10;99.90;;;;;;6143602;23;20076;-73
2022/08/06 01:41:46;;;;;;;3.15;2.72;;;20.10;99.90;;;;;;6144987;23;20006;-72
2022/08/06 01:44:20;;;;;;;3.08;2.50;;;20.10;99.90;;;;;;6143278;23;20017;-73
2022/08/06 01:46:49;;;;;;;2.47;2.13;;;20.10;99.90;;;;;;6147528;23;20013;-72
2022/08/06 01:49:25;;;;;;;2.80;2.60;;;20.10;99.90;;;;;;6145585;23;20001;-72
2022/08/06 01:51:53;;;;;;;3.22;2.92;;;20.00;99.90;;;;;;6146436;23;20001;-72
2022/08/06 01:54:21;;;;;;;4.32;2.60;;;20.00;99.90;;;;;;6143853;23;20012;-72
2022/08/06 01:56:51;;;;;;;4.03;3.15;;;19.90;99.90;;;;;;6146682;23;20045;-72
2022/08/06 01:59:21;;;;;;;2.83;2.63;;;19.90;99.90;;;;;;6143162;23;20080;-72
2022/08/06 02:01:51;;;;;;;3.10;2.90;;;19.90;99.90;;;;;;6144672;23;20109;-72
2022/08/06 02:04:18;;;;;;;3.35;2.65;;;19.90;99.90;;;;;;6143918;23;20017;-72
2022/08/06 02:06:46;;;;;;;3.10;2.80;;;19.90;99.90;;;;;;6145321;23;20088;-72
2022/08/06 02:09:16;;;;;;;5.95;2.97;;;19.90;99.90;;;;;;6145050;23;20335;-72
2022/08/06 02:11:44;;;;;;;2.88;2.67;;;19.90;99.90;;;;;;6146267;23;20069;-72
2022/08/06 02:14:12;;;;;;;3.13;2.83;;;19.90;99.90;;;;;;6139876;23;20010;-72
2022/08/06 02:16:41;;;;;;;2.95;2.75;;;19.80;99.90;;;;;;6146009;23;20039;-72
2022/08/06 02:19:11;;;;;;;2.88;2.50;;;19.70;99.90;;;;;;6144907;23;20005;-72
2022/08/06 02:21:40;;;;;;;13.02;3.00;;;19.70;99.90;;;;;;6145548;23;20001;-72
2022/08/06 02:24:08;;;;;;;2.80;2.60;;;19.60;99.90;;;;;;6142398;23;20100;-72
2022/08/06 02:26:36;;;;;;;5.22;2.60;;;19.50;99.90;;;;;;6146587;23;20640;-72
2022/08/06 02:29:04;;;;;;;5.70;2.40;;;19.60;99.90;;;;;;6142708;23;20016;-72
2022/08/06 02:31:30;;;;;;;5.03;3.00;;;19.60;99.90;;;;;;6144011;23;19997;-73
2022/08/06 02:33:56;;;;;;;3.38;2.97;;;19.60;99.90;;;;;;6144033;23;20029;-73
2022/08/06 02:36:48;;;;;;;3.03;2.72;;;19.70;99.90;;;;;;6145695;23;20005;-72
2022/08/06 02:39:29;;;;;;;3.38;3.08;;;19.70;99.90;;;;;;6142853;23;20040;-72
2022/08/06 02:42:11;;;;;;;2.55;2.35;;;19.70;99.90;;;;;;6145071;23;20010;-72
2022/08/06 02:44:37;;;;;;;6.88;2.58;;;19.60;99.90;;;;;;6143987;23;20039;-72
2022/08/06 02:47:09;;;;;;;3.00;2.80;;;19.50;99.90;;;;;;6143913;23;20439;-72
2022/08/06 02:49:40;;;;;;;2.72;2.53;;;19.50;99.90;;;;;;6144976;23;20315;-72
2022/08/06 02:52:19;;;;;;;4.35;2.47;;;19.50;99.90;;;;;;6144419;23;20451;-72
2022/08/06 02:54:54;;;;;;;3.65;2.80;;;19.40;99.90;;;;;;6141257;23;20002;-72
2022/08/06 02:57:30;;;;;;;4.97;3.10;;;19.40;99.90;;;;;;6144635;23;20029;-73
2022/08/06 03:00:03;;;;;;;5.97;3.08;;;19.40;99.90;;;;;;6143758;23;20514;-72
2022/08/06 03:02:30;;;;;;;2.75;2.55;;;19.40;99.90;;;;;;6145242;23;20006;-72
2022/08/06 03:04:59;;;;;;;2.67;2.47;;;19.40;99.90;;;;;;6141598;23;20174;-72
2022/08/06 03:07:28;;;;;;;3.13;2.55;;;19.40;99.90;;;;;;6145723;23;20081;-72
2022/08/06 03:09:56;;;;;;;2.97;2.72;;;19.40;99.90;;;;;;6143867;23;20009;-72
2022/08/06 03:12:21;;;;;;;3.40;3.00;;;19.40;99.90;;;;;;6144234;23;20619;-72
2022/08/06 03:14:48;;;;;;;8.07;3.03;;;19.50;99.90;;;;;;6143563;23;20009;-72
2022/08/06 03:17:16;;;;;;;5.25;3.00;;;19.50;99.90;;;;;;6145484;23;20881;-72
2022/08/06 03:19:44;;;;;;;3.28;2.97;;;19.50;99.90;;;;;;6143666;23;20005;-72
2022/08/06 03:22:11;;;;;;;4.00;3.13;;;19.50;99.90;;;;;;6144970;23;20009;-72
2022/08/06 03:24:38;;;;;;;2.78;2.58;;;19.50;99.90;;;;;;6143397;23;20013;-72
2022/08/06 03:27:05;;;;;;;2.92;2.72;;;19.50;99.90;;;;;;6143655;23;20025;-72
2022/08/06 03:29:32;;;;;;;3.03;2.83;;;19.40;99.90;;;;;;6143453;23;20431;-72
2022/08/06 03:31:59;;;;;;;4.05;3.05;;;19.40;99.90;;;;;;6143963;23;20269;-72
2022/08/06 03:34:27;;;;;;;3.35;2.67;;;19.40;99.90;;;;;;6145789;23;20005;-72
2022/08/06 03:36:55;;;;;;;2.92;2.60;;;19.30;99.90;;;;;;6142522;23;20006;-72
2022/08/06 03:39:23;;;;;;;4.03;2.67;;;19.30;99.90;;;;;;6146053;23;20057;-72
2022/08/06 03:41:49;;;;;;;6.32;2.95;;;19.30;99.90;;;;;;6145914;23;20025;-72
2022/08/06 03:44:15;;;;;;;3.72;3.08;;;19.30;99.90;;;;;;6145066;23;20024;-72
2022/08/06 03:46:48;;;;;;;3.15;2.50;;;19.30;99.90;;;;;;6146948;23;20512;-72
2022/08/06 03:49:41;;;;;;;8.90;3.33;;;19.40;99.90;;;;;;6147559;23;20001;-72
2022/08/06 03:52:10;;;;;;;3.95;2.58;;;19.30;99.90;;;;;;6137350;23;20451;-72
2022/08/06 03:54:42;;;;;;;3.13;2.45;;;19.30;99.90;;;;;;6146096;23;20009;-72
2022/08/06 03:57:14;;;;;;;4.00;2.60;;;19.20;99.90;;;;;;6145731;23;20060;-73
2022/08/06 03:59:43;;;;;;;3.88;3.03;;;19.10;99.90;;;;;;6144989;23;20005;-72
2022/08/06 04:02:10;;;;;;;3.00;2.67;;;19.10;99.90;;;;;;6142437;23;20429;-72
2022/08/06 04:04:37;;;;;;;2.95;2.75;;;19.00;99.90;;;;;;6146178;23;20443;-72
2022/08/06 04:07:03;;;;;;;3.38;2.83;;;19.10;99.90;;;;;;6144710;23;20002;-73
2022/08/06 04:09:31;;;;;;;7.63;2.92;;;19.10;99.90;;;;;;6145417;23;20077;-75
2022/08/06 04:11:57;;;;;;;7.20;2.83;;;19.20;99.90;;;;;;6146063;23;20048;-72
2022/08/06 04:14:24;;;;;;;3.20;2.90;;;19.30;99.90;;;;;;6146101;23;20013;-73
2022/08/06 04:16:51;;;;;;;3.40;3.10;;;19.30;99.90;;;;;;6146105;23;20888;-72
2022/08/06 04:19:19;;;;;;;2.80;2.60;;;19.30;99.90;;;;;;6147515;23;20463;-72
2022/08/06 04:21:46;;;;;;;3.28;3.00;;;19.40;99.90;;;;;;6144752;23;20010;-72
2022/08/06 04:24:12;;;;;;;3.20;2.95;;;19.40;99.90;;;;;;6135678;23;20317;-72
2022/08/06 04:26:42;;;;;;;3.33;2.78;;;19.50;99.90;;;;;;6144306;23;20749;-72
2022/08/06 04:29:10;;;;;;;4.30;3.28;;;19.50;99.90;;;;;;6146908;23;20511;-72
2022/08/06 04:31:38;;;;;;;5.38;3.10;;;19.60;99.90;;;;;;6143347;23;20001;-72
2022/08/06 04:34:04;;;;;;;3.22;3.03;;;19.70;99.90;;;;;;6119689;23;20006;-72
2022/08/06 04:36:30;;;;;;;5.70;3.22;;;19.80;99.90;;;;;;6145883;23;20009;-72
2022/08/06 04:38:57;;;;;;;3.42;3.08;;;19.90;99.90;;;;;;6145735;23;20076;-72
2022/08/06 04:41:23;;;;;;;3.55;3.22;;;19.90;99.90;;;;;;6142733;23;20103;-72
2022/08/06 04:43:49;;;;;;;3.13;2.70;;;20.00;99.90;;;;;;6145554;23;20006;-73
2022/08/06 04:46:15;;;;;;;3.08;2.80;;;20.20;99.90;;;;;;6145961;23;20064;-72
2022/08/06 04:48:40;;;;;;;4.35;3.00;;;20.20;99.90;;;;;;6145555;23;20419;-72
2022/08/06 04:51:07;;;;;;;6.45;2.92;;;20.40;99.90;;;;;;6146363;23;20490;-72
2022/08/06 04:53:38;;;;;;;4.93;2.95;;;20.50;99.90;;;;;;6145275;23;20375;-72
2022/08/06 04:56:04;;;;;;;4.80;3.17;;;20.60;99.90;;;;;;6144251;23;20530;-72
2022/08/06 04:58:30;;;;;;;3.85;3.05;;;20.80;99.90;;;;;;6144932;23;20065;-72
2022/08/06 05:00:55;;;;;;;3.05;2.60;;;20.80;99.90;;;;;;6145671;23;20012;-72
2022/08/06 05:03:21;;;;;;;3.83;2.90;;;20.90;99.90;;;;;;6146225;23;20020;-72
2022/08/06 05:05:52;;;;;;;4.03;2.67;;;21.00;99.90;;;;;;6145730;23;20041;-72
2022/08/06 05:08:20;;;;;;;2.72;2.53;;;21.10;99.90;;;;;;6145401;23;20001;-72
2022/08/06 05:10:59;;;;;;;3.00;2.50;;;21.20;99.90;;;;;;6146242;23;20424;-71
2022/08/06 05:13:32;;;;;;;7.47;2.85;;;21.30;99.90;;;;;;6142851;23;20006;-71
2022/08/06 05:16:02;;;;;;;5.10;2.28;;;21.40;99.90;;;;;;6144746;23;20005;-71
2022/08/06 05:18:36;;;;;;;3.50;2.70;;;21.50;99.90;;;;;;6145608;23;19994;-71
2022/08/06 05:21:04;;;;;;;3.92;2.85;;;21.70;99.90;;;;;;6144630;23;20739;-70
2022/08/06 05:23:36;;;;;;;3.38;2.85;;;21.80;99.90;;;;;;6145104;23;20025;-70
2022/08/06 05:26:02;;;;;;;2.70;2.50;;;21.80;99.90;;;;;;6145300;23;20020;-70
2022/08/06 05:28:28;;;;;;;2.90;2.50;;;21.90;99.90;;;;;;6144397;23;20144;-70
2022/08/06 05:30:54;;;;;;;2.70;2.45;;;22.00;99.90;;;;;;6143968;23;20001;-70
2022/08/06 05:33:31;;;;;;;3.30;2.95;;;22.10;99.90;;;;;;6144204;23;20203;-71
2022/08/06 05:35:58;;;;;;;16.45;3.22;;;22.10;99.90;;;;;;6119929;23;20435;-70
2022/08/06 05:38:26;;;;;;;3.72;2.70;;;22.20;99.90;;;;;;6144531;23;20006;-71
2022/08/06 05:40:52;;;;;;;3.10;2.80;;;22.30;99.90;;;;;;6144620;23;20012;-70
2022/08/06 05:43:18;;;;;;;5.32;3.00;;;22.40;99.90;;;;;;6144587;23;20005;-70
2022/08/06 05:45:46;;;;;;;18.77;3.40;;;22.50;99.90;;;;;;6146045;23;20141;-70
2022/08/06 05:48:13;;;;;;;3.20;2.90;;;22.60;99.90;;;;;;6144253;23;20002;-70
2022/08/06 05:50:46;;;;;;;3.17;2.90;;;22.70;99.90;;;;;;6146265;23;20032;-70
2022/08/06 05:53:18;;;;;;;3.75;2.95;;;22.80;99.90;;;;;;6144408;23;20427;-70
2022/08/06 05:56:00;;;;;;;6.32;2.80;;;22.90;99.90;;;;;;6144206;23;20021;-70
2022/08/06 05:58:35;;;;;;;2.95;2.55;;;23.10;99.90;;;;;;6145064;23;20192;-69
2022/08/06 06:01:03;;;;;;;3.42;2.80;;;23.30;99.90;;;;;;6145513;23;20457;-70
2022/08/06 06:03:30;;;;;;;3.70;2.80;;;23.40;99.90;;;;;;6143024;23;20790;-70
2022/08/06 06:05:58;;;;;;;6.93;3.10;;;23.60;99.90;;;;;;6145594;23;20017;-70
2022/08/06 06:08:25;;;;;;;2.58;2.38;;;23.70;99.90;;;;;;6145232;23;20384;-71
2022/08/06 06:10:52;;;;;;;2.80;2.60;;;23.80;99.90;;;;;;6144665;23;20005;-71
2022/08/06 06:13:19;;;;;;;2.67;2.47;;;23.90;99.90;;;;;;6140946;23;20008;-71
2022/08/06 06:15:52;;;;;;;3.35;3.15;;;24.10;99.90;;;;;;6140964;23;20010;-71
2022/08/06 06:18:26;;;;;;;2.63;2.42;;;24.20;99.90;;;;;;6140201;23;20427;-71
2022/08/06 06:21:34;;;;;;;3.47;2.90;;;24.30;99.90;;;;;;6141609;23;20005;-73
2022/08/06 06:24:18;;;;;;;4.45;2.47;;;24.40;99.90;;;;;;6143848;23;20017;-73
2022/08/06 06:27:16;;;;;;;5.85;2.58;;;24.60;99.90;;;;;;6144840;23;20010;-71
2022/08/06 06:30:03;;;;;;;4.03;2.35;;;24.80;99.30;;;;;;6131986;23;20137;-71
2022/08/06 06:33:00;;;;;;;5.97;2.55;;;24.90;98.90;;;;;;6146238;23;20085;-71
2022/08/06 06:35:38;;;;;;;33.42;6.03;;;25.10;97.90;;;;;;6142531;23;20015;-71
2022/08/06 06:38:07;;;;;;;7.63;3.35;;;25.20;97.50;;;;;;6144763;23;20439;-71
2022/08/06 06:40:52;;;;;;;6.28;2.78;;;25.30;98.30;;;;;;6144628;23;20016;-72
2022/08/06 06:43:39;;;;;;;3.72;2.53;;;25.40;98.90;;;;;;6143818;23;20080;-72
2022/08/06 06:46:16;;;;;;;9.13;2.97;;;25.60;97.60;;;;;;6143227;23;20005;-72
2022/08/06 06:48:46;;;;;;;3.58;2.05;;;25.70;97.30;;;;;;6144493;23;20012;-72
2022/08/06 06:51:27;;;;;;;2.40;2.20;;;25.90;96.10;;;;;;6143623;23;20264;-73
2022/08/06 06:53:55;;;;;;;4.03;2.30;;;26.10;94.80;;;;;;6144461;23;20029;-72
2022/08/06 06:56:29;;;;;;;2.38;2.15;;;26.20;95.30;;;;;;6138845;23;20018;-75
2022/08/06 06:59:04;;;;;;;4.30;2.28;;;26.20;95.70;;;;;;6137136;23;20149;-72
2022/08/06 07:01:32;;;;;;;2.58;2.13;;;26.30;94.20;;;;;;6142914;23;20013;-72
2022/08/06 07:04:00;;;;;;;3.78;1.70;;;26.50;93.60;;;;;;6144293;23;20064;-75
2022/08/06 07:06:27;;;;;;;5.13;2.10;;;26.60;92.40;;;;;;6141792;23;20028;-72
2022/08/06 07:08:54;;;;;;;1.85;1.75;;;26.70;91.60;;;;;;6145058;23;20009;-73
2022/08/06 07:11:23;;;;;;;6.97;2.63;;;26.90;91.80;;;;;;6142079;23;20531;-69
2022/08/06 07:13:50;;;;;;;9.43;4.47;;;27.00;91.10;;;;;;6116663;23;20415;-74
2022/08/06 07:16:21;;;;;;;21.58;4.40;;;27.20;92.40;;;;;;6144747;23;20076;-69
2022/08/06 07:18:48;;;;;;;5.47;3.03;;;27.20;93.00;;;;;;6146028;23;20013;-69
2022/08/06 07:21:16;;;;;;;61.50;6.38;;;27.30;91.70;;;;;;6145356;23;20001;-68
2022/08/06 07:23:45;;;;;;;2.50;2.30;;;27.30;92.20;;;;;;6145503;23;20010;-68
2022/08/06 07:26:13;;;;;;;5.05;2.40;;;27.40;92.60;;;;;;6146278;23;20002;-70
2022/08/06 07:28:39;;;;;;;4.03;2.35;;;27.50;92.70;;;;;;6143921;23;20001;-67
2022/08/06 07:31:06;;;;;;;2.88;2.58;;;27.50;92.70;;;;;;6147074;23;20008;-69
2022/08/06 07:33:34;;;;;;;5.30;2.92;;;27.50;92.90;;;;;;6146298;23;20012;-70
2022/08/06 07:36:00;;;;;;;10.15;5.25;;;27.60;93.30;;;;;;6146584;23;20076;-68
2022/08/06 07:38:28;;;;;;;2.78;2.53;;;27.80;92.80;;;;;;6144532;23;20088;-69
2022/08/06 07:40:58;;;;;;;6.38;2.70;;;27.90;92.60;;;;;;6142851;23;20009;-69
2022/08/06 07:43:33;;;;;;;3.33;2.60;;;28.00;92.60;;;;;;6143227;23;20101;-68
2022/08/06 07:46:02;;;;;;;4.55;2.50;;;28.20;92.00;;;;;;6144382;23;20032;-69
2022/08/06 07:48:32;;;;;;;2.97;2.25;;;28.20;91.40;;;;;;6144716;23;20028;-69
2022/08/06 07:50:59;;;;;;;2.40;1.88;;;28.30;90.80;;;;;;6146218;23;20009;-70
2022/08/06 07:53:26;;;;;;;4.28;2.40;;;28.10;91.00;;;;;;6142788;23;20006;-69
2022/08/06 07:55:52;;;;;;;3.95;2.28;;;28.10;92.40;;;;;;6144910;23;20047;-69
2022/08/06 07:58:19;;;;;;;5.15;2.55;;;28.20;90.70;;;;;;6146218;23;20220;-69
2022/08/06 08:00:48;;;;;;;3.72;2.10;;;28.30;90.80;;;;;;6145252;23;20416;-69
2022/08/06 08:06:21;;;;;;;2.08;1.83;;;28.50;90.20;;;;;;6148349;23;20073;-69
2022/08/06 08:08:52;;;;;;;2.88;1.80;;;28.50;89.40;;;;;;6146242;23;20016;-69
2022/08/06 08:11:19;;;;;;;4.40;2.10;;;28.70;87.50;;;;;;6145394;23;20009;-69
2022/08/06 08:13:44;;;;;;;4.50;2.28;;;28.80;85.40;;;;;;6146756;23;20014;-69
2022/08/06 08:16:15;;;;;;;5.13;2.10;;;28.80;86.40;;;;;;6145794;23;20010;-69
2022/08/06 08:18:41;;;;;;;3.28;2.17;;;28.90;86.60;;;;;;6119153;23;20064;-69
2022/08/06 08:21:09;;;;;;;3.53;2.22;;;28.90;86.90;;;;;;6145120;23;20032;-69
2022/08/06 08:23:36;;;;;;;3.65;2.03;;;28.90;85.90;;;;;;6144273;23;20005;-69
2022/08/06 08:26:02;;;;;;;3.90;2.03;;;28.90;84.30;;;;;;6144637;23;20009;-69
2022/08/06 08:28:30;;;;;;;2.35;2.10;;;29.00;84.50;;;;;;6145145;23;19998;-69
2022/08/06 08:30:58;;;;;;;4.80;1.98;;;29.10;85.00;;;;;;6142891;23;20006;-69
2022/08/06 08:33:25;;;;;;;2.35;2.17;;;29.10;82.00;;;;;;6144924;23;20001;-69
2022/08/06 08:35:51;;;;;;;2.42;2.22;;;29.20;84.40;;;;;;6144183;23;20028;-69
2022/08/06 08:38:17;;;;;;;2.10;1.92;;;29.20;82.90;;;;;;6143594;23;20009;-69
2022/08/06 08:40:44;;;;;;;3.88;2.05;;;29.30;84.70;;;;;;6143807;23;20014;-69
2022/08/06 08:43:15;;;;;;;3.95;2.10;;;29.40;86.00;;;;;;6144819;23;20503;-69
2022/08/06 08:45:42;;;;;;;;;;;29.40;85.70;;;;;;6145496;23;20013;-69
2022/08/06 08:48:12;;;;;;;4.10;2.50;;;29.50;84.10;;;;;;6144266;23;19900;-69
2022/08/06 08:50:40;;;;;;;2.38;1.92;;;29.60;82.40;;;;;;6144525;23;20008;-69
2022/08/06 08:53:11;;;;;;;4.53;2.03;;;29.70;81.70;;;;;;6117053;23;20440;-69
2022/08/06 08:55:37;;;;;;;3.20;2.50;;;29.70;80.20;;;;;;6145818;23;20096;-69
2022/08/06 08:58:03;;;;;;;4.43;2.03;;;29.70;78.30;;;;;;6144284;23;20262;-69
2022/08/06 09:00:29;;;;;;;2.47;1.90;;;29.80;77.20;;;;;;6144283;23;20380;-69
2022/08/06 09:02:56;;;;;;;2.33;2.10;;;29.90;78.20;;;;;;6140458;23;20025;-69
2022/08/06 09:05:22;;;;;;;2.15;1.98;;;30.00;77.40;;;;;;6145024;23;20201;-69
2022/08/06 09:07:50;;;;;;;4.03;2.15;;;30.10;78.00;;;;;;6143444;23;20077;-70
2022/08/06 09:10:15;;;;;;;4.70;1.90;;;30.30;80.70;;;;;;6144671;23;20013;-69
2022/08/06 09:12:42;;;;;;;1.90;1.80;;;30.40;80.10;;;;;;6144046;23;20005;-69
2022/08/06 09:15:08;;;;;;;3.83;2.17;;;30.50;78.30;;;;;;6144200;23;20010;-69
2022/08/06 09:17:34;;;;;;;7.05;2.80;;;30.60;77.60;;;;;;6140117;23;20013;-69
2022/08/06 09:20:00;;;;;;;9.93;3.65;;;30.70;76.70;;;;;;6139103;23;20009;-69
2022/08/06 09:22:26;;;;;;;3.47;2.30;;;30.70;76.90;;;;;;6144897;23;20004;-69
2022/08/06 09:24:52;;;;;;;33.03;9.73;;;30.80;75.70;;;;;;6143240;23;20017;-69
2022/08/06 09:27:18;;;;;;;5.30;3.20;;;30.90;75.80;;;;;;6146950;23;20121;-69
2022/08/06 09:29:51;;;;;;;2.90;2.58;;;31.00;72.80;;;;;;6143968;23;20009;-70
2022/08/06 09:32:44;;;;;;;3.10;2.50;;;31.10;69.80;;;;;;6143781;23;20427;-69
2022/08/06 09:35:21;;;;;;;3.28;2.47;;;31.20;69.10;;;;;;6120265;23;20009;-70
2022/08/06 09:37:49;;;;;;;6.28;2.80;;;31.20;71.50;;;;;;6143478;23;20009;-69
2022/08/06 09:40:17;;;;;;;3.80;2.60;;;31.30;71.90;;;;;;6145860;23;20029;-69
2022/08/06 09:42:48;;;;;;;7.10;3.70;;;31.40;69.50;;;;;;6145372;23;20017;-69
2022/08/06 09:45:15;;;;;;;7.80;3.50;;;31.40;70.60;;;;;;6145905;23;20493;-69
2022/08/06 09:47:42;;;;;;;5.90;3.03;;;31.50;71.90;;;;;;6145429;23;20001;-70
2022/08/06 09:50:08;;;;;;;10.73;4.30;;;31.60;70.30;;;;;;6145390;23;20016;-69
2022/08/06 09:52:34;;;;;;;3.10;2.80;;;31.60;70.40;;;;;;6144450;23;20009;-69
2022/08/06 09:55:00;;;;;;;3.33;2.53;;;31.60;67.70;;;;;;6143087;23;20057;-69
2022/08/06 09:57:40;;;;;;;5.47;2.53;;;31.50;68.00;;;;;;6146723;23;20009;-69
2022/08/06 10:00:08;;;;;;;2.83;2.63;;;31.60;69.00;;;;;;6146774;23;20053;-68
2022/08/06 10:02:34;;;;;;;3.17;2.70;;;31.70;72.30;;;;;;6141621;23;20006;-68
2022/08/06 10:05:10;;;;;;;4.00;2.70;;;31.80;70.40;;;;;;6119315;23;20029;-69
2022/08/06 10:07:36;;;;;;;3.65;2.50;;;31.90;68.00;;;;;;6144516;23;20002;-69
2022/08/06 10:10:02;;;;;;;3.45;2.90;;;31.90;68.90;;;;;;6145373;23;20033;-69
2022/08/06 10:12:27;;;;;;;2.97;2.70;;;32.00;68.80;;;;;;6143086;23;20064;-68
2022/08/06 10:14:53;;;;;;;2.90;2.60;;;32.00;67.60;;;;;;6145096;23;20016;-68
2022/08/06 10:17:22;;;;;;;5.70;3.05;;;31.90;69.10;;;;;;6144225;23;20002;-68
2022/08/06 10:20:14;;;;;;;6.43;2.85;;;32.00;67.20;;;;;;6144386;23;20082;-68
2022/08/06 10:23:00;;;;;;;3.13;2.40;;;31.90;70.20;;;;;;6117653;23;20005;-68
2022/08/06 10:25:29;;;;;;;4.22;3.00;;;32.00;67.00;;;;;;6144006;23;20568;-70
2022/08/06 10:27:56;;;;;;;4.55;2.70;;;31.90;67.60;;;;;;6140328;23;20013;-70
2022/08/06 10:30:22;;;;;;;4.85;3.42;;;31.80;68.80;;;;;;6144525;23;20029;-70
2022/08/06 10:33:01;;;;;;;3.20;2.83;;;31.80;71.70;;;;;;6141734;23;20080;-70
2022/08/06 10:35:27;;;;;;;4.20;2.70;;;31.90;69.80;;;;;;6145037;23;20006;-70
2022/08/06 10:37:58;;;;;;;3.30;3.00;;;31.90;68.60;;;;;;6144904;23;20028;-70
2022/08/06 10:40:25;;;;;;;4.53;3.10;;;32.00;69.40;;;;;;6144913;23;20097;-70
2022/08/06 10:42:52;;;;;;;4.10;2.70;;;32.20;69.50;;;;;;6144580;23;20040;-70
2022/08/06 10:45:18;;;;;;;6.28;2.90;;;32.30;70.70;;;;;;6142814;23;20017;-70
2022/08/06 10:47:46;;;;;;;3.00;2.80;;;32.50;67.80;;;;;;6148126;23;20005;-70
2022/08/06 10:50:13;;;;;;;5.03;3.00;;;32.50;64.40;;;;;;6147110;23;20116;-69
2022/08/06 10:52:40;;;;;;;5.93;2.80;;;32.60;65.70;;;;;;6147624;23;20506;-70
2022/08/06 10:55:07;;;;;;;4.07;3.03;;;32.60;64.60;;;;;;6147288;23;20049;-69
2022/08/06 10:57:32;;;;;;;5.05;3.00;;;32.60;64.20;;;;;;6147535;23;20016;-70
2022/08/06 11:00:00;;;;;;;4.75;3.22;;;32.70;67.30;;;;;;6147396;23;20339;-69
2022/08/06 11:03:01;;;;;;;4.28;2.65;;;32.90;68.20;;;;;;6143433;23;20001;-70
2022/08/06 11:05:37;;;;;;;3.65;3.20;;;32.90;65.40;;;;;;6120928;23;20071;-69
2022/08/06 11:08:36;;;;;;;3.20;2.97;;;32.90;63.40;;;;;;6145653;23;20730;-69
2022/08/06 11:11:59;;;;;;;3.17;2.85;;;32.80;66.00;;;;;;6144946;23;20565;-69
2022/08/06 11:14:26;;;;;;;4.10;3.60;;;32.80;65.80;;;;;;6057211;23;20070;-70
2022/08/06 11:16:56;;;;;;;4.90;3.15;;;32.60;67.30;;;;;;6055702;23;20374;-70
2022/08/06 11:19:44;;;;;;;3.90;3.60;;;32.60;66.20;;;;;;6100472;23;20834;-70
2022/08/06 11:22:35;;;;;;;3.00;2.80;;;32.60;62.20;;;;;;6145692;23;20390;-70
2022/08/06 11:25:02;;;;;;;4.28;3.03;;;32.70;61.40;;;;;;6146143;23;20108;-70
2022/08/06 11:27:52;;;;;;;4.00;3.30;;;32.90;66.50;;;;;;6147697;23;20002;-68
2022/08/06 11:30:19;;;;;;;6.07;3.65;;;33.10;63.00;;;;;;6146084;23;20457;-70
2022/08/06 11:32:52;;;;;;;7.20;3.63;;;33.00;63.90;;;;;;6144058;23;20013;-73
2022/08/06 11:35:33;;;;;;;3.65;3.45;;;33.00;64.30;;;;;;6147099;23;20327;-73
2022/08/06 11:38:03;;;;;;;5.30;3.97;;;32.90;65.40;;;;;;6118043;23;20138;-70
2022/08/06 11:40:57;;;;;;;3.92;3.63;;;32.70;68.30;;;;;;6145036;23;20001;-70
2022/08/06 11:43:40;;;;;;;4.88;3.78;;;32.60;68.20;;;;;;6144223;23;20006;-69
2022/08/06 11:46:26;;;;;;;3.97;3.72;;;32.80;64.80;;;;;;6145637;23;20069;-70
2022/08/06 11:49:04;;;;;;;4.68;4.05;;;32.90;66.40;;;;;;6145940;23;20038;-70
2022/08/06 11:51:58;;;;;;;4.78;4.00;;;32.90;67.30;;;;;;6142999;23;20103;-70
2022/08/06 11:54:25;;;;;;;6.60;4.00;;;33.00;67.80;;;;;;6142107;23;20017;-70
2022/08/06 11:57:09;;;;;;;3.97;3.67;;;33.10;69.80;;;;;;6144749;23;20053;-69
2022/08/06 11:59:50;;;;;;;4.85;4.15;;;33.30;70.60;;;;;;6143669;23;20036;-70
2022/08/06 12:02:37;;;;;;;3.90;3.30;;;33.50;68.70;;;;;;6109714;23;20006;-70
2022/08/06 12:05:03;;;;;;;2.75;2.50;;;33.50;60.30;;;;;;6143690;23;20017;-70
2022/08/06 12:07:31;;;;;;;4.60;2.50;;;33.30;58.90;;;;;;6135357;23;20005;-70
2022/08/06 12:10:05;;;;;;;2.95;2.40;;;33.10;60.20;;;;;;6119448;23;20029;-70
2022/08/06 12:12:39;;;;;;;2.78;2.58;;;32.80;60.70;;;;;;6141323;23;20002;-70
2022/08/06 12:15:16;;;;;;;3.88;2.65;;;32.50;61.00;;;;;;6145851;23;20001;-70
2022/08/06 12:17:54;;;;;;;2.45;2.17;;;32.30;63.20;;;;;;6135909;23;20112;-71
2022/08/06 12:20:35;;;;;;;3.10;2.85;;;32.10;62.50;;;;;;6135444;23;20486;-70
2022/08/06 12:23:10;;;;;;;5.05;2.85;;;32.00;65.80;;;;;;6143323;23;20472;-71
2022/08/06 12:25:38;;;;;;;6.78;4.40;;;31.80;67.20;;;;;;6145579;23;20071;-70
2022/08/06 12:28:07;;;;;;;6.00;5.50;;;31.70;69.30;;;;;;6144729;23;20002;-70
2022/08/06 12:30:44;;;;;;;6.40;5.32;;;31.60;71.40;;;;;;6146517;23;20001;-70
2022/08/06 12:33:10;;;;;;;8.38;5.78;;;31.50;69.60;;;;;;6145970;23;20005;-70
2022/08/06 12:35:47;;;;;;;10.68;5.80;;;31.50;72.10;;;;;;6144366;23;20061;-70
2022/08/06 12:38:12;;;;;;;7.30;5.57;;;31.50;73.80;;;;;;6146032;23;20411;-70
2022/08/06 12:40:38;;;;;;;8.55;5.47;;;31.50;73.40;;;;;;6144223;23;20424;-70
2022/08/06 12:43:04;;;;;;;6.10;5.60;;;31.60;74.10;;;;;;6144450;23;20008;-69
2022/08/06 12:45:32;;;;;;;7.50;5.93;;;31.70;75.20;;;;;;6146162;23;20462;-69
2022/08/06 12:48:24;;;;;;;6.30;5.75;;;31.80;73.30;;;;;;6145532;23;20036;-69
2022/08/06 12:51:00;;;;;;;6.20;5.60;;;31.80;72.40;;;;;;6141639;23;20113;-71
2022/08/06 12:53:25;;;;;;;5.63;5.13;;;31.80;74.30;;;;;;6140706;23;20016;-71
2022/08/06 12:55:53;;;;;;;6.13;5.43;;;31.80;73.00;;;;;;6144998;23;20018;-70
2022/08/06 12:58:23;;;;;;;6.53;5.93;;;31.70;72.90;;;;;;6144932;23;20013;-69
2022/08/06 13:00:56;;;;;;;5.88;5.47;;;31.70;74.20;;;;;;6120503;23;20092;-70
2022/08/06 13:03:23;;;;;;;5.90;5.35;;;31.70;74.60;;;;;;6145707;23;20021;-70
2022/08/06 13:05:52;;;;;;;6.20;5.50;;;31.60;72.60;;;;;;6145036;23;20037;-70
2022/08/06 13:08:20;;;;;;;11.60;5.70;;;31.60;73.80;;;;;;6144849;23;19997;-71